Time;durP1;ratioP1;P1;durP2;ratioP2;P2;SDS_P1;SDS_P2;PMS_P1;PMS_P2;Temp;Humidity;BMP_temperature;BMP_pressure;BME280_temperature;BME280_humidity;BME280_pressure;Samples;Min_cycle;Max_cycle;Signal;HPM_P1;HPM_P2
2021/04/13 00:01:14;;;;;;;0.70;0.32;;;8.60;99.80;;;;;;5072837;28;20029;-79
2021/04/13 00:03:54;;;;;;;0.68;0.30;;;8.60;99.40;;;;;;5073164;28;20024;-79
2021/04/13 00:06:26;;;;;;;0.43;0.30;;;8.60;99.50;;;;;;5072881;28;20028;-79
2021/04/13 00:09:00;;;;;;;0.60;0.60;;;8.60;99.70;;;;;;5071903;28;20062;-79
2021/04/13 00:11:26;;;;;;;0.38;0.38;;;8.60;99.70;;;;;;5071753;28;20051;-79
2021/04/13 00:13:57;;;;;;;0.20;0.20;;;8.60;99.80;;;;;;5070848;28;20052;-79
2021/04/13 00:16:27;;;;;;;3.97;0.40;;;8.60;99.40;;;;;;5071056;28;20025;-79
2021/04/13 00:18:55;;;;;;;0.30;0.30;;;8.60;99.10;;;;;;5072239;28;20016;-79
2021/04/13 00:21:26;;;;;;;0.20;0.20;;;8.60;99.10;;;;;;5071555;28;20017;-79
2021/04/13 00:23:53;;;;;;;1.65;0.30;;;8.70;98.60;;;;;;5071313;28;20529;-79
2021/04/13 00:26:23;;;;;;;2.53;0.32;;;8.70;98.10;;;;;;5073119;28;20025;-79
2021/04/13 00:28:50;;;;;;;0.75;0.20;;;8.70;98.20;;;;;;5067201;28;20055;-79
2021/04/13 00:31:38;;;;;;;0.35;0.35;;;8.80;97.90;;;;;;5073039;28;20069;-79
2021/04/13 00:34:14;;;;;;;0.20;0.20;;;8.70;98.40;;;;;;5071740;28;20024;-79
2021/04/13 00:36:42;;;;;;;0.30;0.30;;;8.70;97.50;;;;;;5071555;28;20025;-79
2021/04/13 00:39:27;;;;;;;0.30;0.30;;;8.70;97.40;;;;;;5071732;28;20032;-79
2021/04/13 00:42:02;;;;;;;0.52;0.35;;;8.70;97.50;;;;;;5072420;28;20107;-79
2021/04/13 00:44:29;;;;;;;0.20;0.20;;;8.80;97.80;;;;;;5071445;28;20051;-79
2021/04/13 00:47:01;;;;;;;0.20;0.20;;;8.80;97.20;;;;;;5072934;28;20055;-80
2021/04/13 00:49:31;;;;;;;0.57;0.30;;;8.80;97.30;;;;;;5071729;28;20029;-79
2021/04/13 00:52:01;;;;;;;0.40;0.40;;;8.80;97.10;;;;;;5071564;28;20082;-79
2021/04/13 00:54:43;;;;;;;0.30;0.30;;;8.80;97.10;;;;;;5071396;28;20116;-79
2021/04/13 00:57:18;;;;;;;1.02;0.20;;;8.80;96.60;;;;;;5072795;28;20048;-80
2021/04/13 00:59:46;;;;;;;0.38;0.38;;;8.80;96.50;;;;;;5061190;28;20033;-80
2021/04/13 01:02:17;;;;;;;0.25;0.25;;;8.80;96.30;;;;;;5071188;28;20108;-79
2021/04/13 01:05:06;;;;;;;0.35;0.35;;;8.80;96.50;;;;;;5072832;28;20024;-79
2021/04/13 01:07:31;;;;;;;0.20;0.20;;;8.80;95.80;;;;;;5072865;28;20070;-80
2021/04/13 01:10:33;;;;;;;0.30;0.30;;;8.80;95.70;;;;;;5072737;28;20029;-80
2021/04/13 01:13:11;;;;;;;0.23;0.23;;;8.80;95.60;;;;;;5069613;28;20037;-80
2021/04/13 01:15:43;;;;;;;0.20;0.20;;;8.80;96.10;;;;;;5072624;28;20258;-80
2021/04/13 01:18:38;;;;;;;2.70;0.35;;;8.80;95.60;;;;;;5072650;28;20090;-80
2021/04/13 01:21:42;;;;;;;0.30;0.30;;;8.80;95.70;;;;;;5069862;28;20029;-80
2021/04/13 01:24:20;;;;;;;0.35;0.35;;;8.80;95.60;;;;;;5071132;28;20106;-80
2021/04/13 01:26:49;;;;;;;0.35;0.35;;;8.80;95.10;;;;;;5072121;28;20387;-80
2021/04/13 01:29:16;;;;;;;0.35;0.20;;;8.80;95.20;;;;;;5075116;28;20497;-80
2021/04/13 01:31:47;;;;;;;0.40;0.20;;;8.80;95.20;;;;;;5075100;28;20044;-80
2021/04/13 01:34:32;;;;;;;0.28;0.28;;;8.80;95.10;;;;;;5074992;28;20024;-80
2021/04/13 01:37:49;;;;;;;0.57;0.30;;;8.80;95.10;;;;;;5076069;28;20367;-80
2021/04/13 01:40:33;;;;;;;0.30;0.30;;;8.80;94.90;;;;;;5037199;28;20025;-80
2021/04/13 01:42:59;;;;;;;0.70;0.32;;;8.80;94.50;;;;;;5088442;28;20025;-79
2021/04/13 01:45:32;;;;;;;0.20;0.20;;;8.80;94.50;;;;;;5058652;28;20094;-79
2021/04/13 01:47:58;;;;;;;0.30;0.30;;;8.80;94.10;;;;;;5076009;28;20111;-79
2021/04/13 01:50:27;;;;;;;0.30;0.30;;;8.80;94.20;;;;;;5075330;28;20082;-79
2021/04/13 01:53:02;;;;;;;0.50;0.30;;;8.80;94.00;;;;;;5059427;28;20060;-79
2021/04/13 01:55:30;;;;;;;0.10;0.10;;;8.80;94.20;;;;;;5074011;28;20036;-78
2021/04/13 01:58:19;;;;;;;0.20;0.20;;;8.80;94.00;;;;;;5070470;28;20035;-79
2021/04/13 02:01:11;;;;;;;0.38;0.20;;;8.80;93.70;;;;;;5057932;28;20029;-79
2021/04/13 02:03:56;;;;;;;0.50;0.30;;;8.80;93.30;;;;;;5067562;28;20033;-78
2021/04/13 02:06:27;;;;;;;0.30;0.30;;;8.80;93.40;;;;;;5074202;28;20458;-79
2021/04/13 02:09:02;;;;;;;0.40;0.40;;;8.80;93.60;;;;;;5075434;28;20020;-78
2021/04/13 02:11:34;;;;;;;0.28;0.22;;;8.80;93.60;;;;;;5074341;28;20021;-79
2021/04/13 02:14:11;;;;;;;0.20;0.20;;;8.80;93.90;;;;;;5074249;28;20021;-78
2021/04/13 02:16:39;;;;;;;0.25;0.25;;;8.80;93.90;;;;;;5075151;28;20040;-78
2021/04/13 02:19:10;;;;;;;0.20;0.20;;;8.80;93.90;;;;;;5075385;28;20032;-78
2021/04/13 02:21:51;;;;;;;7.03;0.40;;;8.80;93.60;;;;;;5075031;28;20024;-78
2021/04/13 02:24:21;;;;;;;0.30;0.30;;;8.80;93.30;;;;;;5054242;28;20073;-78
2021/04/13 02:26:53;;;;;;;0.30;0.30;;;8.80;93.40;;;;;;5073401;28;20024;-78
2021/04/13 02:29:26;;;;;;;0.20;0.20;;;8.70;93.60;;;;;;5073848;28;20445;-78
2021/04/13 02:31:58;;;;;;;0.20;0.20;;;8.70;93.10;;;;;;5074584;28;20112;-78
2021/04/13 02:34:40;;;;;;;1.65;0.47;;;8.70;93.40;;;;;;5075239;28;20621;-78
2021/04/13 02:37:31;;;;;;;0.30;0.30;;;8.70;93.30;;;;;;5074885;28;20054;-78
2021/04/13 02:40:09;;;;;;;0.43;0.30;;;8.70;93.50;;;;;;5071635;28;20398;-78
2021/04/13 02:42:39;;;;;;;0.30;0.30;;;8.70;92.50;;;;;;5073513;28;20082;-78
2021/04/13 02:45:09;;;;;;;0.30;0.30;;;8.80;92.40;;;;;;5073760;28;20035;-77
2021/04/13 02:47:44;;;;;;;1.00;0.43;;;8.80;92.80;;;;;;5075130;28;20073;-77
2021/04/13 02:50:15;;;;;;;3.72;0.20;;;8.80;92.60;;;;;;5074826;28;20032;-77
2021/04/13 02:52:45;;;;;;;0.28;0.28;;;8.80;91.40;;;;;;5073666;28;20036;-77
2021/04/13 02:55:24;;;;;;;0.30;0.30;;;8.80;91.50;;;;;;5073357;28;20047;-77
2021/04/13 02:57:50;;;;;;;4.85;0.40;;;8.80;91.60;;;;;;5073601;28;20032;-77
2021/04/13 03:00:21;;;;;;;0.20;0.20;;;8.80;91.60;;;;;;5074533;28;20067;-77
2021/04/13 03:03:03;;;;;;;0.20;0.20;;;8.80;91.60;;;;;;5074581;28;20470;-77
2021/04/13 03:05:29;;;;;;;0.22;0.22;;;8.80;91.60;;;;;;5074646;28;20106;-77
2021/04/13 03:08:04;;;;;;;0.20;0.20;;;8.80;91.60;;;;;;5074569;28;20071;-77
2021/04/13 03:10:33;;;;;;;0.20;0.20;;;8.80;91.10;;;;;;5073014;28;20115;-77
2021/04/13 03:13:06;;;;;;;0.43;0.40;;;8.80;90.80;;;;;;5074329;28;20028;-77
2021/04/13 03:15:33;;;;;;;0.30;0.30;;;8.80;91.30;;;;;;5073041;28;20051;-77
2021/04/13 03:18:03;;;;;;;1.23;0.30;;;8.80;90.70;;;;;;5074307;28;20033;-77
2021/04/13 03:20:37;;;;;;;0.20;0.20;;;8.80;90.20;;;;;;5082377;28;20028;-77
2021/04/13 03:23:05;;;;;;;0.55;0.30;;;8.70;89.90;;;;;;5094687;28;20020;-77
2021/04/13 03:25:35;;;;;;;0.30;0.30;;;8.70;90.70;;;;;;5093115;28;20035;-76
2021/04/13 03:28:05;;;;;;;0.47;0.30;;;8.70;90.20;;;;;;5088297;28;20013;-76
2021/04/13 03:30:33;;;;;;;1.02;0.30;;;8.70;90.10;;;;;;5074084;28;20150;-77
2021/04/13 03:33:16;;;;;;;0.20;0.20;;;8.70;90.60;;;;;;5071860;28;20023;-76
2021/04/13 03:35:42;;;;;;;0.30;0.30;;;8.70;90.90;;;;;;5072617;28;20486;-77
2021/04/13 03:38:12;;;;;;;0.22;0.22;;;8.70;91.10;;;;;;5073909;28;20102;-77
2021/04/13 03:40:44;;;;;;;0.20;0.20;;;8.60;91.10;;;;;;5073597;28;20046;-77
2021/04/13 03:43:12;;;;;;;0.40;0.40;;;8.70;91.60;;;;;;5072079;28;20115;-76
2021/04/13 03:45:38;;;;;;;0.30;0.30;;;8.60;91.50;;;;;;5073519;28;21641;-76
2021/04/13 03:48:10;;;;;;;0.77;0.47;;;8.60;91.40;;;;;;5073466;28;20028;-76
2021/04/13 03:50:39;;;;;;;0.20;0.20;;;8.60;90.90;;;;;;5071734;28;20033;-76
2021/04/13 03:53:07;;;;;;;0.50;0.28;;;8.60;91.30;;;;;;5073548;28;20158;-76
2021/04/13 03:55:34;;;;;;;0.60;0.40;;;8.60;90.50;;;;;;5071886;28;20036;-76
2021/04/13 03:58:19;;;;;;;0.38;0.28;;;8.60;90.30;;;;;;5073067;28;20032;-76
2021/04/13 04:00:45;;;;;;;0.40;0.40;;;8.60;90.60;;;;;;5071733;28;20020;-76
2021/04/13 04:03:11;;;;;;;0.20;0.20;;;8.60;90.20;;;;;;5073077;28;20020;-76
2021/04/13 04:05:47;;;;;;;1.00;0.30;;;8.70;87.90;;;;;;5072752;28;20021;-76
2021/04/13 04:08:28;;;;;;;3.53;0.45;;;8.60;88.60;;;;;;5073028;28;20024;-76
2021/04/13 04:10:54;;;;;;;0.45;0.45;;;8.70;86.80;;;;;;5073357;28;20027;-77
2021/04/13 04:13:47;;;;;;;0.30;0.30;;;8.70;87.50;;;;;;5073103;28;20399;-76
2021/04/13 04:16:30;;;;;;;0.40;0.40;;;8.70;89.10;;;;;;5069798;28;20044;-76
2021/04/13 04:18:56;;;;;;;;;;;8.70;87.10;;;;;;5073463;28;20021;-76
2021/04/13 04:21:39;;;;;;;0.30;0.30;;;8.70;87.50;;;;;;5072464;28;20019;-76
2021/04/13 04:24:22;;;;;;;0.20;0.20;;;8.70;87.00;;;;;;5071961;28;20037;-76
2021/04/13 04:26:55;;;;;;;0.40;0.40;;;8.70;85.50;;;;;;5064611;28;20068;-76
2021/04/13 04:29:51;;;;;;;0.40;0.40;;;8.70;85.10;;;;;;5071976;28;20020;-77
2021/04/13 04:32:28;;;;;;;0.45;0.45;;;8.70;85.70;;;;;;5071934;28;20012;-76
2021/04/13 04:34:55;;;;;;;0.47;0.47;;;8.70;85.90;;;;;;5066173;28;20028;-76
2021/04/13 04:37:29;;;;;;;0.40;0.40;;;8.70;84.90;;;;;;5072582;28;20017;-77
2021/04/13 04:40:19;;;;;;;0.40;0.40;;;8.70;85.70;;;;;;5071699;28;20029;-76
2021/04/13 04:42:57;;;;;;;0.35;0.35;;;8.70;84.40;;;;;;5067861;28;20017;-76
2021/04/13 04:45:44;;;;;;;0.50;0.50;;;8.70;83.60;;;;;;5094710;28;20359;-76
2021/04/13 04:48:31;;;;;;;0.43;0.30;;;8.80;82.50;;;;;;5068710;28;20025;-76
2021/04/13 04:51:04;;;;;;;0.40;0.40;;;8.70;81.80;;;;;;5071586;28;20025;-76
2021/04/13 04:53:31;;;;;;;0.63;0.63;;;8.70;82.60;;;;;;5072218;28;20482;-76
2021/04/13 04:55:58;;;;;;;0.38;0.38;;;8.70;82.70;;;;;;5072835;28;20021;-76
2021/04/13 04:58:24;;;;;;;0.40;0.40;;;8.70;81.60;;;;;;5071348;28;20047;-76
2021/04/13 05:00:51;;;;;;;0.63;0.63;;;8.70;81.80;;;;;;5071442;28;20025;-76
2021/04/13 05:03:19;;;;;;;0.45;0.45;;;8.70;80.20;;;;;;5074801;28;20032;-76
2021/04/13 05:05:45;;;;;;;3.13;0.40;;;8.80;81.60;;;;;;5075870;28;20408;-76
2021/04/13 05:08:11;;;;;;;1.65;0.43;;;8.70;80.80;;;;;;5076296;28;20070;-76
2021/04/13 05:10:36;;;;;;;0.40;0.40;;;8.70;82.00;;;;;;5075123;28;20405;-76
2021/04/13 05:13:02;;;;;;;0.40;0.40;;;8.80;79.60;;;;;;5076537;28;20020;-76
2021/04/13 05:15:28;;;;;;;0.88;0.40;;;8.70;78.00;;;;;;5074576;28;20376;-76
2021/04/13 05:17:53;;;;;;;2.92;0.50;;;8.80;77.70;;;;;;5074839;28;20035;-76
2021/04/13 05:20:20;;;;;;;0.40;0.40;;;8.70;77.70;;;;;;5076603;28;20075;-76
2021/04/13 05:22:46;;;;;;;1.90;0.55;;;8.80;77.70;;;;;;5068360;28;20394;-76
2021/04/13 05:25:13;;;;;;;1.05;0.52;;;8.80;76.60;;;;;;5077966;28;20051;-76
2021/04/13 05:27:39;;;;;;;0.50;0.50;;;8.80;77.10;;;;;;5075325;28;20025;-76
2021/04/13 05:30:07;;;;;;;0.40;0.40;;;8.80;75.20;;;;;;5074883;28;20028;-76
2021/04/13 05:32:33;;;;;;;0.52;0.52;;;8.80;76.10;;;;;;5075392;28;20044;-76
2021/04/13 05:35:00;;;;;;;2.08;0.60;;;8.80;76.20;;;;;;5075654;28;20024;-76
2021/04/13 05:37:28;;;;;;;0.65;0.65;;;8.80;74.90;;;;;;5075181;28;20528;-76
2021/04/13 05:39:55;;;;;;;0.95;0.55;;;8.80;74.80;;;;;;5074570;28;20483;-76
2021/04/13 05:42:34;;;;;;;0.70;0.70;;;8.80;76.70;;;;;;5075452;28;20115;-76
2021/04/13 05:45:00;;;;;;;0.60;0.50;;;8.80;74.80;;;;;;5075930;28;20027;-76
2021/04/13 05:47:30;;;;;;;0.73;0.50;;;8.80;75.10;;;;;;5075760;28;20021;-76
2021/04/13 05:49:56;;;;;;;0.55;0.55;;;8.80;75.90;;;;;;5075383;28;20038;-76
2021/04/13 05:52:22;;;;;;;0.70;0.50;;;8.80;74.90;;;;;;5075697;28;20024;-76
2021/04/13 05:54:48;;;;;;;0.55;0.55;;;8.80;72.70;;;;;;5075717;28;20044;-76
2021/04/13 05:57:18;;;;;;;2.88;0.60;;;8.90;73.10;;;;;;5075637;28;20382;-76
2021/04/13 05:59:44;;;;;;;0.68;0.68;;;8.90;72.50;;;;;;5075536;28;20028;-76
2021/04/13 06:02:14;;;;;;;0.73;0.52;;;8.90;72.80;;;;;;5075364;28;20142;-76
2021/04/13 06:04:40;;;;;;;0.68;0.60;;;9.00;72.60;;;;;;5074021;28;20021;-76
2021/04/13 06:07:06;;;;;;;2.60;0.65;;;9.00;70.80;;;;;;5074332;28;20540;-76
2021/04/13 06:09:32;;;;;;;0.50;0.50;;;9.00;70.70;;;;;;5074240;28;20383;-76
2021/04/13 06:11:59;;;;;;;1.05;0.55;;;9.10;71.50;;;;;;5074056;28;20029;-76
2021/04/13 06:14:27;;;;;;;2.92;0.73;;;9.00;69.70;;;;;;5072504;28;20024;-76
2021/04/13 06:16:53;;;;;;;0.60;0.60;;;9.00;68.70;;;;;;5075299;28;20025;-76
2021/04/13 06:19:18;;;;;;;0.60;0.60;;;9.10;70.90;;;;;;5075319;28;20059;-76
2021/04/13 06:21:45;;;;;;;0.60;0.60;;;9.10;70.60;;;;;;5073532;28;20025;-76
2021/04/13 06:24:12;;;;;;;0.50;0.50;;;9.10;67.90;;;;;;5074978;28;20037;-76
2021/04/13 06:26:38;;;;;;;1.05;0.82;;;9.20;67.60;;;;;;5073816;28;20108;-76
2021/04/13 06:29:05;;;;;;;0.88;0.88;;;9.20;67.30;;;;;;5059421;28;20040;-76
2021/04/13 06:31:31;;;;;;;0.60;0.60;;;9.20;66.40;;;;;;5071980;28;20421;-76
2021/04/13 06:33:57;;;;;;;0.75;0.70;;;9.10;68.00;;;;;;5074780;28;20024;-76
2021/04/13 06:36:25;;;;;;;0.95;0.80;;;9.10;65.90;;;;;;5073950;28;20070;-76
2021/04/13 06:38:52;;;;;;;0.75;0.75;;;9.20;66.30;;;;;;5075182;28;20020;-76
2021/04/13 06:42:04;;;;;;;2.00;0.80;;;9.20;66.40;;;;;;5075087;28;20021;-76
2021/04/13 06:44:33;;;;;;;0.85;0.70;;;9.20;68.20;;;;;;5058763;28;20033;-76
2021/04/13 06:47:10;;;;;;;1.85;0.82;;;9.30;68.90;;;;;;5073550;28;20024;-76
2021/04/13 06:49:58;;;;;;;0.90;0.90;;;9.30;66.10;;;;;;5074850;28;20029;-76
2021/04/13 06:52:42;;;;;;;1.30;1.20;;;9.30;67.60;;;;;;5072927;28;20031;-76
2021/04/13 06:55:17;;;;;;;0.70;0.70;;;9.40;66.50;;;;;;5072090;28;20115;-76
2021/04/13 06:58:13;;;;;;;1.63;0.68;;;9.40;65.90;;;;;;5073495;28;20037;-77
2021/04/13 07:00:50;;;;;;;1.98;0.90;;;9.40;65.60;;;;;;5070899;28;20025;-76
2021/04/13 07:03:50;;;;;;;0.70;0.70;;;9.40;64.90;;;;;;5073089;28;20383;-76
2021/04/13 07:06:34;;;;;;;1.05;0.57;;;9.40;64.20;;;;;;5065601;28;20036;-76
2021/04/13 07:09:21;;;;;;;0.70;0.70;;;9.50;65.50;;;;;;5072518;28;20421;-76
2021/04/13 07:11:58;;;;;;;1.65;0.60;;;9.50;64.90;;;;;;5063433;28;20048;-76
2021/04/13 07:14:41;;;;;;;1.15;0.80;;;9.50;66.10;;;;;;5072080;28;20024;-76
2021/04/13 07:17:15;;;;;;;2.33;0.90;;;9.60;66.50;;;;;;5076389;28;20031;-76
2021/04/13 07:19:49;;;;;;;0.60;0.60;;;9.60;66.90;;;;;;5072577;28;20378;-76
2021/04/13 07:22:31;;;;;;;0.82;0.82;;;9.60;65.60;;;;;;5072828;28;20029;-76
2021/04/13 07:25:21;;;;;;;0.85;0.80;;;9.70;69.30;;;;;;5066732;28;20044;-76
2021/04/13 07:28:03;;;;;;;0.95;0.90;;;9.70;69.20;;;;;;5072267;28;20021;-76
2021/04/13 07:30:38;;;;;;;2.08;0.95;;;9.80;71.70;;;;;;5071211;28;20382;-77
2021/04/13 07:33:06;;;;;;;1.00;0.90;;;9.90;70.80;;;;;;5072927;28;20486;-77
2021/04/13 07:35:39;;;;;;;0.93;0.93;;;10.10;78.60;;;;;;5067865;28;20106;-77
2021/04/13 07:38:31;;;;;;;1.60;1.20;;;10.10;71.90;;;;;;5071908;28;20039;-77
2021/04/13 07:41:05;;;;;;;0.98;0.90;;;10.10;71.40;;;;;;5072851;28;20024;-77
2021/04/13 07:43:37;;;;;;;0.63;0.63;;;10.10;70.20;;;;;;5072293;28;20483;-77
2021/04/13 07:46:09;;;;;;;2.22;0.93;;;10.10;71.00;;;;;;5071616;28;20024;-76
2021/04/13 07:49:02;;;;;;;1.40;0.90;;;10.10;65.10;;;;;;5072573;28;20094;-77
2021/04/13 07:51:55;;;;;;;0.73;0.73;;;10.20;68.00;;;;;;5069254;28;20021;-76
2021/04/13 07:54:39;;;;;;;2.33;1.50;;;10.20;67.50;;;;;;5067054;28;20099;-77
2021/04/13 07:57:13;;;;;;;2.25;1.70;;;10.20;70.10;;;;;;5071963;28;20475;-76
2021/04/13 07:59:58;;;;;;;1.05;1.05;;;10.20;71.10;;;;;;5072965;28;20082;-76
2021/04/13 08:02:23;;;;;;;1.20;1.10;;;10.30;72.70;;;;;;5072518;28;20031;-76
2021/04/13 08:04:51;;;;;;;0.63;0.63;;;10.40;73.80;;;;;;5073088;28;20025;-77
2021/04/13 08:07:27;;;;;;;1.58;0.90;;;10.40;69.40;;;;;;5072982;28;20115;-76
2021/04/13 08:10:11;;;;;;;0.73;0.73;;;10.40;72.40;;;;;;5065826;28;20024;-77
2021/04/13 08:12:52;;;;;;;1.30;0.93;;;10.50;72.50;;;;;;5072617;28;20024;-76
2021/04/13 08:15:40;;;;;;;1.08;0.80;;;10.50;70.50;;;;;;5065159;28;20517;-76
2021/04/13 08:18:18;;;;;;;0.95;0.95;;;10.50;70.10;;;;;;5072329;28;20028;-76
2021/04/13 08:20:46;;;;;;;0.73;0.73;;;10.50;69.00;;;;;;5072815;28;20020;-76
2021/04/13 08:23:36;;;;;;;0.75;0.70;;;10.50;70.50;;;;;;5072460;28;20758;-77
2021/04/13 08:26:38;;;;;;;1.20;1.20;;;10.60;70.50;;;;;;5071308;28;20021;-76
2021/04/13 08:29:07;;;;;;;2.17;1.15;;;10.60;71.10;;;;;;5060854;28;20029;-74
2021/04/13 08:34:38;;;;;;;1.70;1.60;;;10.60;69.70;;;;;;5071811;28;20043;-74
2021/04/13 08:37:21;;;;;;;1.50;1.40;;;10.60;65.40;;;;;;5070470;28;20351;-74
2021/04/13 08:40:06;;;;;;;1.00;1.00;;;10.60;65.10;;;;;;5071620;28;20028;-74
2021/04/13 08:42:45;;;;;;;1.52;1.40;;;10.60;67.00;;;;;;5070466;28;20029;-74
2021/04/13 08:45:20;;;;;;;1.27;1.17;;;10.70;70.00;;;;;;5071589;28;20051;-74
2021/04/13 08:48:00;;;;;;;1.25;0.90;;;10.70;69.90;;;;;;5071158;28;20046;-74
2021/04/13 08:50:33;;;;;;;4.90;1.10;;;10.70;69.30;;;;;;5071812;28;20211;-74
2021/04/13 08:53:24;;;;;;;1.27;0.73;;;10.80;70.50;;;;;;5071078;28;20434;-74
2021/04/13 08:55:50;;;;;;;0.60;0.60;;;10.80;66.10;;;;;;5062382;28;20497;-74
2021/04/13 08:58:19;;;;;;;1.10;0.90;;;10.70;60.50;;;;;;5066957;28;20040;-74
2021/04/13 09:00:49;;;;;;;0.90;0.90;;;10.60;61.60;;;;;;5069640;28;20037;-74
2021/04/13 09:03:21;;;;;;;1.42;0.85;;;10.70;68.40;;;;;;5070988;28;20036;-74
2021/04/13 09:06:06;;;;;;;2.55;1.67;;;10.80;66.20;;;;;;5071515;28;20100;-74
2021/04/13 09:08:41;;;;;;;1.65;1.30;;;10.90;68.60;;;;;;5069767;28;20016;-74
2021/04/13 09:11:09;;;;;;;1.65;1.00;;;10.90;65.30;;;;;;5071451;28;20032;-74
2021/04/13 09:13:39;;;;;;;1.92;0.80;;;10.90;65.60;;;;;;5071095;28;20021;-74
2021/04/13 09:16:08;;;;;;;0.80;0.80;;;11.00;64.60;;;;;;5070818;28;20066;-74
2021/04/13 09:18:46;;;;;;;1.02;0.93;;;11.10;68.80;;;;;;5071355;28;20024;-74
2021/04/13 09:21:23;;;;;;;0.98;0.98;;;11.20;68.80;;;;;;5068259;28;20029;-74
2021/04/13 09:24:11;;;;;;;1.10;1.00;;;11.20;68.70;;;;;;5069657;28;20056;-74
2021/04/13 09:27:01;;;;;;;1.75;1.02;;;11.30;68.30;;;;;;5071043;28;20111;-74
2021/04/13 09:29:35;;;;;;;2.28;0.88;;;11.40;69.00;;;;;;5067314;28;20062;-74
2021/04/13 09:32:07;;;;;;;0.80;0.80;;;11.40;64.80;;;;;;5069306;28;20051;-74
2021/04/13 09:34:56;;;;;;;1.73;1.20;;;11.40;65.80;;;;;;5067584;28;20086;-74
2021/04/13 09:37:50;;;;;;;1.00;0.90;;;11.40;66.60;;;;;;5073844;28;20051;-74
2021/04/13 09:40:38;;;;;;;0.70;0.70;;;11.50;69.70;;;;;;5068857;28;20178;-74
2021/04/13 09:43:19;;;;;;;1.48;0.85;;;11.50;67.60;;;;;;5066772;28;20031;-74
2021/04/13 09:46:14;;;;;;;1.60;0.93;;;11.60;70.00;;;;;;5068117;28;20032;-74
2021/04/13 09:49:02;;;;;;;0.77;0.77;;;11.70;70.00;;;;;;5067596;28;20379;-73
2021/04/13 09:51:27;;;;;;;1.25;1.00;;;11.80;68.90;;;;;;5068328;28;20096;-74
2021/04/13 09:54:08;;;;;;;2.85;1.10;;;11.90;66.60;;;;;;5070447;28;20108;-73
2021/04/13 09:56:58;;;;;;;1.27;1.10;;;11.90;66.30;;;;;;5070788;28;20024;-73
2021/04/13 09:59:59;;;;;;;1.95;1.00;;;11.90;67.00;;;;;;5066926;28;20029;-74
2021/04/13 10:02:51;;;;;;;0.95;0.88;;;12.00;66.70;;;;;;5070682;28;20830;-74
2021/04/13 10:05:18;;;;;;;;;;;11.90;60.10;;;;;;5071129;28;20020;-73
2021/04/13 10:08:06;;;;;;;1.77;1.67;;;11.90;90.00;;;;;;5063445;28;19986;-73
2021/04/13 10:10:52;;;;;;;1.98;1.88;;;11.70;97.90;;;;;;5071319;28;20479;-74
2021/04/13 10:13:48;;;;;;;1.67;1.58;;;11.60;99.90;;;;;;5070761;28;20454;-74
2021/04/13 10:16:21;;;;;;;1.90;1.80;;;11.30;99.90;;;;;;5070062;28;20030;-73
2021/04/13 10:18:56;;;;;;;2.17;1.98;;;11.30;99.90;;;;;;5068004;28;20036;-74
2021/04/13 10:21:59;;;;;;;1.98;1.80;;;11.40;99.90;;;;;;5068151;28;20596;-73
2021/04/13 10:24:34;;;;;;;1.63;1.52;;;11.40;99.90;;;;;;5069557;28;20116;-74
2021/04/13 10:27:37;;;;;;;1.73;1.40;;;11.50;99.90;;;;;;5068071;28;20025;-73
2021/04/13 10:30:24;;;;;;;1.65;1.58;;;11.40;99.90;;;;;;5066849;28;20393;-73
2021/04/13 10:32:59;;;;;;;1.70;1.60;;;11.50;99.90;;;;;;5067339;28;20036;-74
2021/04/13 10:36:06;;;;;;;4.30;1.70;;;11.50;99.90;;;;;;5068195;28;20021;-74
2021/04/13 10:38:35;;;;;;;1.70;1.60;;;11.60;99.90;;;;;;5068264;28;20024;-74
2021/04/13 10:41:29;;;;;;;1.60;1.55;;;11.60;99.90;;;;;;5067469;28;20027;-73
2021/04/13 10:43:57;;;;;;;1.65;1.55;;;11.50;99.90;;;;;;5068512;28;20023;-73
2021/04/13 10:46:27;;;;;;;1.85;1.75;;;11.50;99.90;;;;;;5067844;28;20021;-73
2021/04/13 10:49:02;;;;;;;2.17;2.00;;;11.60;99.90;;;;;;5068206;28;20103;-73
2021/04/13 10:51:49;;;;;;;4.40;2.00;;;11.60;99.90;;;;;;5068254;28;20036;-74
2021/04/13 10:54:30;;;;;;;2.00;1.90;;;11.70;99.90;;;;;;5064892;28;20474;-73
2021/04/13 10:56:58;;;;;;;2.38;1.98;;;11.70;99.90;;;;;;5068498;28;20089;-74
2021/04/13 10:59:50;;;;;;;2.50;2.30;;;11.50;99.90;;;;;;5067981;28;20071;-74
2021/04/13 11:02:41;;;;;;;2.40;2.17;;;11.60;99.90;;;;;;5066888;28;20127;-74
2021/04/13 11:05:19;;;;;;;2.70;2.22;;;11.50;99.90;;;;;;5067127;28;20016;-74
2021/04/13 11:08:18;;;;;;;5.03;1.92;;;11.60;99.90;;;;;;5066963;28;20020;-73
2021/04/13 11:10:56;;;;;;;2.13;2.00;;;11.70;99.90;;;;;;5066907;28;20063;-74
2021/04/13 11:14:13;;;;;;;2.88;1.80;;;11.70;99.90;;;;;;5068700;28;20116;-73
2021/04/13 11:17:09;;;;;;;2.00;1.90;;;11.70;99.90;;;;;;5057193;28;20048;-73
2021/04/13 11:19:38;;;;;;;2.00;1.90;;;11.80;99.90;;;;;;5069504;28;20031;-73
2021/04/13 11:22:07;;;;;;;1.88;1.77;;;11.90;99.90;;;;;;5068194;28;20040;-73
2021/04/13 11:24:39;;;;;;;2.65;1.63;;;11.80;99.90;;;;;;5068908;28;20178;-74
2021/04/13 11:27:17;;;;;;;2.95;2.75;;;11.70;99.90;;;;;;5068024;28;20471;-74
2021/04/13 11:29:55;;;;;;;2.80;2.60;;;11.70;99.90;;;;;;5068291;28;20032;-74
2021/04/13 11:32:52;;;;;;;2.53;2.40;;;11.70;99.90;;;;;;5074047;28;20432;-73
2021/04/13 11:35:18;;;;;;;2.38;2.28;;;11.80;99.90;;;;;;5052123;28;20024;-73
2021/04/13 11:38:11;;;;;;;2.50;2.30;;;11.90;99.90;;;;;;5067272;28;20548;-73
2021/04/13 11:40:49;;;;;;;2.63;2.42;;;11.90;99.90;;;;;;5069127;28;20025;-74
2021/04/13 11:43:23;;;;;;;1.65;1.65;;;11.90;99.90;;;;;;5068629;28;20097;-73
2021/04/13 11:46:06;;;;;;;2.08;1.98;;;12.10;99.90;;;;;;5068050;28;20024;-73
2021/04/13 11:48:52;;;;;;;1.88;1.60;;;12.00;99.90;;;;;;5068310;28;20170;-73
2021/04/13 11:51:27;;;;;;;2.00;1.80;;;12.00;99.90;;;;;;5065708;28;20105;-73
2021/04/13 11:53:53;;;;;;;1.90;1.80;;;12.10;99.90;;;;;;5067675;28;20109;-73
2021/04/13 11:56:22;;;;;;;3.17;1.80;;;12.20;99.90;;;;;;5069151;28;20786;-73
2021/04/13 11:59:12;;;;;;;2.03;1.92;;;12.30;99.90;;;;;;5064656;28;20032;-73
2021/04/13 12:01:40;;;;;;;1.77;1.67;;;12.20;99.90;;;;;;5067521;28;20547;-73
2021/04/13 12:04:08;;;;;;;2.47;2.28;;;12.00;99.90;;;;;;5066000;28;20659;-73
2021/04/13 12:07:08;;;;;;;1.80;1.70;;;11.90;99.90;;;;;;5067640;28;20037;-73
2021/04/13 12:10:00;;;;;;;2.85;1.83;;;12.00;99.90;;;;;;5056005;28;20036;-73
2021/04/13 12:12:32;;;;;;;4.53;2.92;;;12.10;99.90;;;;;;5066968;28;20453;-73
2021/04/13 12:15:06;;;;;;;2.20;2.10;;;12.00;99.90;;;;;;5064848;28;20032;-73
2021/04/13 12:17:48;;;;;;;2.90;2.60;;;11.90;99.90;;;;;;5064166;28;20040;-73
2021/04/13 12:20:24;;;;;;;2.20;2.10;;;12.00;99.90;;;;;;5066115;28;20071;-73
2021/04/13 12:22:55;;;;;;;2.55;2.35;;;12.10;99.90;;;;;;5065584;28;20070;-73
2021/04/13 12:25:42;;;;;;;2.42;2.25;;;12.10;99.90;;;;;;5066967;28;20037;-73
2021/04/13 12:28:12;;;;;;;2.63;2.42;;;12.20;99.90;;;;;;5060723;28;20020;-73
2021/04/13 12:30:41;;;;;;;2.42;2.33;;;12.20;99.90;;;;;;5067300;28;20170;-73
2021/04/13 12:33:27;;;;;;;3.58;2.33;;;12.30;99.90;;;;;;5066579;28;20662;-73
2021/04/13 12:36:05;;;;;;;2.58;2.38;;;12.50;99.90;;;;;;5065415;28;20039;-73
2021/04/13 12:38:56;;;;;;;2.38;2.22;;;12.70;99.90;;;;;;5066880;28;20367;-73
2021/04/13 12:41:34;;;;;;;2.13;1.95;;;12.90;99.90;;;;;;5060313;28;20502;-73
2021/04/13 12:44:13;;;;;;;2.22;2.08;;;12.90;99.00;;;;;;5065769;28;20036;-73
2021/04/13 12:46:41;;;;;;;4.90;2.70;;;13.00;99.20;;;;;;5059215;28;20029;-74
2021/04/13 12:49:12;;;;;;;3.15;2.95;;;13.00;98.70;;;;;;5067940;28;20028;-74
2021/04/13 12:51:38;;;;;;;2.40;2.30;;;12.90;98.10;;;;;;5066537;28;20036;-73
2021/04/13 12:54:12;;;;;;;2.13;2.00;;;12.80;98.30;;;;;;5067790;28;20024;-73
2021/04/13 12:56:39;;;;;;;2.58;2.30;;;12.80;98.60;;;;;;5068002;28;20103;-73
2021/04/13 12:59:12;;;;;;;2.90;2.35;;;12.90;98.90;;;;;;5064379;28;20040;-73
2021/04/13 13:01:42;;;;;;;2.72;2.63;;;13.00;98.60;;;;;;5069366;28;20053;-76
2021/04/13 13:04:14;;;;;;;2.78;2.47;;;13.20;97.50;;;;;;5068609;28;20059;-74
2021/04/13 13:07:10;;;;;;;2.67;2.58;;;13.10;96.90;;;;;;5067580;28;20483;-76
2021/04/13 13:09:39;;;;;;;2.53;2.33;;;13.10;97.60;;;;;;5064864;28;20392;-76
2021/04/13 13:12:23;;;;;;;3.30;2.78;;;13.20;96.60;;;;;;5068707;28;20052;-76
2021/04/13 13:14:57;;;;;;;2.30;2.20;;;13.30;96.20;;;;;;5068582;28;20035;-76
2021/04/13 13:17:32;;;;;;;4.10;2.80;;;13.30;96.70;;;;;;5067411;28;20020;-79
2021/04/13 13:19:59;;;;;;;2.72;2.60;;;13.10;96.50;;;;;;5069411;28;20025;-79
2021/04/13 13:22:30;;;;;;;2.78;2.60;;;13.00;96.90;;;;;;5069722;28;20024;-78
2021/04/13 13:25:12;;;;;;;2.78;2.60;;;12.90;97.00;;;;;;5073483;28;20099;-77
2021/04/13 13:27:38;;;;;;;;;;;12.80;97.50;;;;;;5066819;28;20051;-80
2021/04/13 13:30:08;;;;;;;2.72;2.63;;;12.90;97.90;;;;;;5073554;28;19943;-78
2021/04/13 13:32:35;;;;;;;5.60;2.65;;;12.80;97.60;;;;;;5075920;28;20016;-79
2021/04/13 13:35:12;;;;;;;2.50;2.40;;;12.80;97.60;;;;;;5074372;28;20486;-77
2021/04/13 13:37:49;;;;;;;2.60;2.50;;;13.00;97.50;;;;;;5075289;28;20597;-77
2021/04/13 13:40:16;;;;;;;2.90;2.70;;;13.10;97.30;;;;;;5068122;28;20078;-77
2021/04/13 13:42:43;;;;;;;3.45;3.15;;;13.30;96.40;;;;;;5073916;28;20048;-75